sensor_id;sensor_type;location;lat;lon;timestamp;pressure;altitude;pressure_sealevel;temperature;humidity
5298;BME280;14738;42.668;23.250;2023-04-22T00:02:08;48402.22;;;-141.90;100.00
5298;BME280;14738;42.668;23.250;2023-04-22T00:04:33;48414.13;;;-141.90;100.00
5298;BME280;14738;42.668;23.250;2023-04-22T00:06:59;48426.03;;;-141.90;100.00
5298;BME280;14738;42.668;23.250;2023-04-22T00:09:24;48437.94;;;-141.90;100.00
5298;BME280;14738;42.668;23.250;2023-04-22T00:11:50;48437.94;;;-141.90;100.00
5298;BME280;14738;42.668;23.250;2023-04-22T00:14:16;48414.13;;;-141.90;100.00
5298;BME280;14738;42.668;23.250;2023-04-22T00:16:41;48435.97;;;-141.90;100.00
5298;BME280;14738;42.668;23.250;2023-04-22T00:19:06;48445.88;;;-141.90;100.00
5298;BME280;14738;42.668;23.250;2023-04-22T00:21:32;48443.91;;;-141.90;100.00
5298;BME280;14738;42.668;23.250;2023-04-22T00:23:57;48422.06;;;-141.90;100.00
5298;BME280;14738;42.668;23.250;2023-04-22T00:26:23;48426.03;;;-141.90;100.00
5298;BME280;14738;42.668;23.250;2023-04-22T00:28:49;48457.81;;;-141.90;100.00
5298;BME280;14738;42.668;23.250;2023-04-22T00:31:14;48449.84;;;-141.90;100.00
5298;BME280;14738;42.668;23.250;2023-04-22T00:33:40;48430.00;;;-141.90;100.00
5298;BME280;14738;42.668;23.250;2023-04-22T00:36:05;48418.09;;;-141.90;100.00
5298;BME280;14738;42.668;23.250;2023-04-22T00:38:30;48463.75;;;-141.90;100.00
5298;BME280;14738;42.668;23.250;2023-04-22T00:40:56;48453.81;;;-141.90;100.00
5298;BME280;14738;42.668;23.250;2023-04-22T00:43:21;48461.78;;;-141.90;100.00
5298;BME280;14738;42.668;23.250;2023-04-22T00:45:49;48441.91;;;-141.90;100.00
5298;BME280;14738;42.668;23.250;2023-04-22T00:48:15;48453.81;;;-141.90;100.00
5298;BME280;14738;42.668;23.250;2023-04-22T00:50:40;48449.84;;;-141.90;100.00
5298;BME280;14738;42.668;23.250;2023-04-22T00:53:05;48451.84;;;-141.90;100.00
5298;BME280;14738;42.668;23.250;2023-04-22T00:55:31;48457.81;;;-141.90;100.00
5298;BME280;14738;42.668;23.250;2023-04-22T00:57:57;48457.81;;;-141.90;100.00
5298;BME280;14738;42.668;23.250;2023-04-22T01:00:24;48449.84;;;-141.90;100.00
5298;BME280;14738;42.668;23.250;2023-04-22T01:02:53;48445.88;;;-141.90;100.00
5298;BME280;14738;42.668;23.250;2023-04-22T01:05:18;48424.06;;;-141.90;100.00
5298;BME280;14738;42.668;23.250;2023-04-22T01:07:44;48422.06;;;-141.90;100.00
5298;BME280;14738;42.668;23.250;2023-04-22T01:10:10;48443.91;;;-141.90;100.00
5298;BME280;14738;42.668;23.250;2023-04-22T01:12:35;48433.97;;;-141.90;100.00
5298;BME280;14738;42.668;23.250;2023-04-22T01:15:01;48455.81;;;-141.90;100.00
5298;BME280;14738;42.668;23.250;2023-04-22T01:17:27;48430.00;;;-141.90;100.00
5298;BME280;14738;42.668;23.250;2023-04-22T01:19:53;48475.66;;;-141.90;100.00
5298;BME280;14738;42.668;23.250;2023-04-22T01:22:19;48449.84;;;-141.90;100.00
5298;BME280;14738;42.668;23.250;2023-04-22T01:24:45;48437.94;;;-141.90;100.00
5298;BME280;14738;42.668;23.250;2023-04-22T01:27:11;48416.09;;;-141.90;100.00
5298;BME280;14738;42.668;23.250;2023-04-22T01:29:37;48406.19;;;-141.90;100.00
5298;BME280;14738;42.668;23.250;2023-04-22T01:32:03;48441.91;;;-141.90;100.00
5298;BME280;14738;42.668;23.250;2023-04-22T01:34:30;48461.78;;;-141.90;100.00
5298;BME280;14738;42.668;23.250;2023-04-22T01:36:55;48433.97;;;-141.90;100.00
5298;BME280;14738;42.668;23.250;2023-04-22T01:39:21;48414.13;;;-141.90;100.00
5298;BME280;14738;42.668;23.250;2023-04-22T01:41:47;48447.88;;;-141.90;100.00
5298;BME280;14738;42.668;23.250;2023-04-22T01:44:13;48430.00;;;-141.90;100.00
5298;BME280;14738;42.668;23.250;2023-04-22T01:46:38;48414.13;;;-141.90;100.00
5298;BME280;14738;42.668;23.250;2023-04-22T01:49:04;48422.06;;;-141.90;100.00
5298;BME280;14738;42.668;23.250;2023-04-22T01:51:29;48433.97;;;-141.90;100.00
5298;BME280;14738;42.668;23.250;2023-04-22T01:53:56;48481.63;;;-141.90;100.00
5298;BME280;14738;42.668;23.250;2023-04-22T01:56:21;48465.75;;;-141.90;100.00
5298;BME280;14738;42.668;23.250;2023-04-22T01:58:47;48445.88;;;-141.90;100.00
5298;BME280;14738;42.668;23.250;2023-04-22T02:01:12;48435.97;;;-141.90;100.00
5298;BME280;14738;42.668;23.250;2023-04-22T02:03:38;48430.00;;;-141.90;100.00
5298;BME280;14738;42.668;23.250;2023-04-22T02:06:03;48475.66;;;-141.90;100.00
5298;BME280;14738;42.668;23.250;2023-04-22T02:08:29;48465.75;;;-141.90;100.00
5298;BME280;14738;42.668;23.250;2023-04-22T02:10:55;48449.84;;;-141.90;100.00
5298;BME280;14738;42.668;23.250;2023-04-22T02:13:21;48426.03;;;-141.90;100.00
5298;BME280;14738;42.668;23.250;2023-04-22T02:15:46;48449.84;;;-141.90;100.00
5298;BME280;14738;42.668;23.250;2023-04-22T02:18:11;48449.84;;;-141.90;100.00
5298;BME280;14738;42.668;23.250;2023-04-22T02:20:37;48445.88;;;-141.90;100.00
5298;BME280;14738;42.668;23.250;2023-04-22T02:23:02;48445.88;;;-141.90;100.00
5298;BME280;14738;42.668;23.250;2023-04-22T02:25:28;48418.09;;;-141.90;100.00
5298;BME280;14738;42.668;23.250;2023-04-22T02:27:54;48437.94;;;-141.90;100.00
5298;BME280;14738;42.668;23.250;2023-04-22T02:30:20;48449.84;;;-141.90;100.00
5298;BME280;14738;42.668;23.250;2023-04-22T02:32:45;48430.00;;;-141.90;100.00
5298;BME280;14738;42.668;23.250;2023-04-22T02:35:11;48441.91;;;-141.90;100.00
5298;BME280;14738;42.668;23.250;2023-04-22T02:37:37;48426.03;;;-141.90;100.00
5298;BME280;14738;42.668;23.250;2023-04-22T02:40:03;48441.91;;;-141.90;100.00
5298;BME280;14738;42.668;23.250;2023-04-22T02:42:29;48455.81;;;-141.90;100.00
5298;BME280;14738;42.668;23.250;2023-04-22T02:44:54;48467.72;;;-141.90;100.00
5298;BME280;14738;42.668;23.250;2023-04-22T02:47:20;48445.88;;;-141.90;100.00
5298;BME280;14738;42.668;23.250;2023-04-22T02:49:45;48455.81;;;-141.90;100.00
5298;BME280;14738;42.668;23.250;2023-04-22T02:52:11;48457.81;;;-141.90;100.00
5298;BME280;14738;42.668;23.250;2023-04-22T02:54:36;48457.81;;;-141.90;100.00
5298;BME280;14738;42.668;23.250;2023-04-22T02:57:02;48416.09;;;-141.90;100.00
5298;BME280;14738;42.668;23.250;2023-04-22T02:59:27;48433.97;;;-141.90;100.00
5298;BME280;14738;42.668;23.250;2023-04-22T03:01:52;48453.81;;;-141.90;100.00
5298;BME280;14738;42.668;23.250;2023-04-22T03:04:18;48437.94;;;-141.90;100.00
5298;BME280;14738;42.668;23.250;2023-04-22T03:06:47;48461.78;;;-141.90;100.00
5298;BME280;14738;42.668;23.250;2023-04-22T03:09:12;48457.81;;;-141.90;100.00
5298;BME280;14738;42.668;23.250;2023-04-22T03:11:38;48445.88;;;-141.90;100.00
5298;BME280;14738;42.668;23.250;2023-04-22T03:14:03;48457.81;;;-141.90;100.00
5298;BME280;14738;42.668;23.250;2023-04-22T03:16:28;48445.88;;;-141.90;100.00
5298;BME280;14738;42.668;23.250;2023-04-22T03:18:54;48449.84;;;-141.90;100.00
5298;BME280;14738;42.668;23.250;2023-04-22T03:21:19;48461.78;;;-141.90;100.00
5298;BME280;14738;42.668;23.250;2023-04-22T03:23:45;48469.72;;;-141.90;100.00
5298;BME280;14738;42.668;23.250;2023-04-22T03:26:11;48459.78;;;-141.90;100.00
5298;BME280;14738;42.668;23.250;2023-04-22T03:28:38;48437.94;;;-141.90;100.00
5298;BME280;14738;42.668;23.250;2023-04-22T03:31:06;48461.78;;;-141.90;100.00
5298;BME280;14738;42.668;23.250;2023-04-22T03:33:31;48441.91;;;-141.90;100.00
5298;BME280;14738;42.668;23.250;2023-04-22T03:35:57;48465.75;;;-141.90;100.00
5298;BME280;14738;42.668;23.250;2023-04-22T03:38:23;48437.94;;;-141.90;100.00
5298;BME280;14738;42.668;23.250;2023-04-22T03:40:49;48449.84;;;-141.90;100.00
5298;BME280;14738;42.668;23.250;2023-04-22T03:43:14;48445.88;;;-141.90;100.00
5298;BME280;14738;42.668;23.250;2023-04-22T03:45:39;48457.81;;;-141.90;100.00
5298;BME280;14738;42.668;23.250;2023-04-22T03:48:05;48461.78;;;-141.90;100.00
5298;BME280;14738;42.668;23.250;2023-04-22T03:50:30;48430.00;;;-141.90;100.00
5298;BME280;14738;42.668;23.250;2023-04-22T03:52:55;48441.91;;;-141.90;100.00
5298;BME280;14738;42.668;23.250;2023-04-22T03:55:21;48449.84;;;-141.90;100.00
5298;BME280;14738;42.668;23.250;2023-04-22T03:57:46;48422.06;;;-141.90;100.00
5298;BME280;14738;42.668;23.250;2023-04-22T04:00:12;48400.22;;;-141.90;100.00
5298;BME280;14738;42.668;23.250;2023-04-22T04:02:37;48428.03;;;-141.90;100.00
5298;BME280;14738;42.668;23.250;2023-04-22T04:05:03;48426.03;;;-141.90;100.00
5298;BME280;14738;42.668;23.250;2023-04-22T04:07:29;48426.03;;;-141.90;100.00
5298;BME280;14738;42.668;23.250;2023-04-22T04:09:54;48418.09;;;-141.90;100.00
5298;BME280;14738;42.668;23.250;2023-04-22T04:12:19;48412.13;;;-141.90;100.00
5298;BME280;14738;42.668;23.250;2023-04-22T04:14:45;48422.06;;;-141.90;100.00
5298;BME280;14738;42.668;23.250;2023-04-22T04:17:10;48424.06;;;-141.90;100.00
5298;BME280;14738;42.668;23.250;2023-04-22T04:19:38;48430.00;;;-141.90;100.00
5298;BME280;14738;42.668;23.250;2023-04-22T04:22:03;48416.09;;;-141.90;100.00
5298;BME280;14738;42.668;23.250;2023-04-22T04:24:29;48418.09;;;-141.90;100.00
5298;BME280;14738;42.668;23.250;2023-04-22T04:26:54;48435.97;;;-141.90;100.00
5298;BME280;14738;42.668;23.250;2023-04-22T04:29:22;48426.03;;;-141.90;43.41
5298;BME280;14738;42.668;23.250;2023-04-22T04:31:47;48441.91;;;-141.90;42.23
5298;BME280;14738;42.668;23.250;2023-04-22T04:34:13;48433.97;;;-141.90;42.18
5298;BME280;14738;42.668;23.250;2023-04-22T04:36:38;48437.94;;;-141.90;41.71
5298;BME280;14738;42.668;23.250;2023-04-22T04:39:05;48459.78;;;-141.90;38.92
5298;BME280;14738;42.668;23.250;2023-04-22T04:41:30;48453.81;;;-141.90;38.25
5298;BME280;14738;42.668;23.250;2023-04-22T04:43:56;48455.81;;;-141.90;37.75
5298;BME280;14738;42.668;23.250;2023-04-22T04:46:24;48471.69;;;-141.90;35.16
5298;BME280;14738;42.668;23.250;2023-04-22T04:48:50;48481.63;;;-141.90;35.61
5298;BME280;14738;42.668;23.250;2023-04-22T04:51:18;48493.53;;;-141.90;35.63
5298;BME280;14738;42.668;23.250;2023-04-22T04:53:44;48509.41;;;-141.90;33.15
5298;BME280;14738;42.668;23.250;2023-04-22T04:56:09;48487.56;;;-141.90;31.77
5298;BME280;14738;42.668;23.250;2023-04-22T04:58:35;48487.56;;;-141.90;32.18
5298;BME280;14738;42.668;23.250;2023-04-22T05:01:00;48509.41;;;-141.90;31.45
5298;BME280;14738;42.668;23.250;2023-04-22T05:03:25;48517.34;;;-141.90;31.09
5298;BME280;14738;42.668;23.250;2023-04-22T05:05:51;48555.09;;;-141.90;29.28
5298;BME280;14738;42.668;23.250;2023-04-22T05:08:16;48533.25;;;-141.90;29.19
5298;BME280;14738;42.668;23.250;2023-04-22T05:10:42;48523.31;;;-141.90;30.23
5298;BME280;14738;42.668;23.250;2023-04-22T05:13:08;48511.41;;;-141.90;31.00
5298;BME280;14738;42.668;23.250;2023-04-22T05:15:34;48489.56;;;-141.90;31.37
5298;BME280;14738;42.668;23.250;2023-04-22T05:17:59;48481.63;;;-141.90;30.24
5298;BME280;14738;42.668;23.250;2023-04-22T05:20:25;48465.75;;;-141.90;32.58
5298;BME280;14738;42.668;23.250;2023-04-22T05:22:50;48487.56;;;-141.90;31.60
5298;BME280;14738;42.668;23.250;2023-04-22T05:25:15;48553.09;;;-141.90;29.90
5298;BME280;14738;42.668;23.250;2023-04-22T05:27:41;48471.69;;;-141.90;30.62
5298;BME280;14738;42.668;23.250;2023-04-22T05:30:07;48501.47;;;-141.90;31.69
5298;BME280;14738;42.668;23.250;2023-04-22T05:32:32;48499.50;;;-141.90;31.72
5298;BME280;14738;42.668;23.250;2023-04-22T05:34:58;48509.41;;;-141.90;30.57
5298;BME280;14738;42.668;23.250;2023-04-22T05:37:23;48469.72;;;-141.90;31.34
5298;BME280;14738;42.668;23.250;2023-04-22T05:39:48;48491.56;;;-141.90;31.70
5298;BME280;14738;42.668;23.250;2023-04-22T05:42:14;48483.59;;;-141.90;31.48
5298;BME280;14738;42.668;23.250;2023-04-22T05:44:39;48503.47;;;-141.90;30.37
5298;BME280;14738;42.668;23.250;2023-04-22T05:47:05;48487.56;;;-141.90;29.38
5298;BME280;14738;42.668;23.250;2023-04-22T05:49:30;48513.38;;;-141.90;29.73
5298;BME280;14738;42.668;23.250;2023-04-22T05:51:55;48565.00;;;-141.90;29.46
5298;BME280;14738;42.668;23.250;2023-04-22T05:54:21;48511.41;;;-141.90;29.61
5298;BME280;14738;42.668;23.250;2023-04-22T05:56:46;48491.56;;;-141.90;29.60
5298;BME280;14738;42.668;23.250;2023-04-22T05:59:12;48473.69;;;-141.90;31.62
5298;BME280;14738;42.668;23.250;2023-04-22T06:01:37;48445.88;;;-141.90;32.02
5298;BME280;14738;42.668;23.250;2023-04-22T06:04:03;48509.41;;;-141.90;30.93
5298;BME280;14738;42.668;23.250;2023-04-22T06:06:31;48491.56;;;-141.90;31.55
5298;BME280;14738;42.668;23.250;2023-04-22T06:08:57;48491.56;;;-141.90;30.81
5298;BME280;14738;42.668;23.250;2023-04-22T06:11:22;48511.41;;;-141.90;29.96
5298;BME280;14738;42.668;23.250;2023-04-22T06:13:48;48533.25;;;-141.90;29.36
5298;BME280;14738;42.668;23.250;2023-04-22T06:16:13;48525.31;;;-141.90;29.51
5298;BME280;14738;42.668;23.250;2023-04-22T06:18:39;48517.34;;;-141.90;29.53
5298;BME280;14738;42.668;23.250;2023-04-22T06:21:05;48565.00;;;-141.90;29.11
5298;BME280;14738;42.668;23.250;2023-04-22T06:23:30;48600.75;;;-141.90;27.37
5298;BME280;14738;42.668;23.250;2023-04-22T06:25:55;48584.84;;;-141.90;26.92
5298;BME280;14738;42.668;23.250;2023-04-22T06:28:22;48588.84;;;-141.90;27.14
5298;BME280;14738;42.668;23.250;2023-04-22T06:30:48;48523.31;;;-141.90;28.08
5298;BME280;14738;42.668;23.250;2023-04-22T06:33:13;48533.25;;;-141.90;28.33
5298;BME280;14738;42.668;23.250;2023-04-22T06:35:38;48541.19;;;-141.90;27.52
5298;BME280;14738;42.668;23.250;2023-04-22T06:38:04;48485.59;;;-141.90;29.77
5298;BME280;14738;42.668;23.250;2023-04-22T06:40:29;48537.22;;;-141.90;28.62
5298;BME280;14738;42.668;23.250;2023-04-22T06:42:55;48563.03;;;-141.90;27.91
5298;BME280;14738;42.668;23.250;2023-04-22T06:45:20;48588.84;;;-141.90;26.87
5298;BME280;14738;42.668;23.250;2023-04-22T06:47:46;48580.88;;;-141.90;26.86
5298;BME280;14738;42.668;23.250;2023-04-22T06:50:11;48557.06;;;-141.90;26.87
5298;BME280;14738;42.668;23.250;2023-04-22T06:52:36;48517.34;;;-141.90;29.88
5298;BME280;14738;42.668;23.250;2023-04-22T06:55:02;48497.50;;;-141.90;30.23
5298;BME280;14738;42.668;23.250;2023-04-22T06:57:29;48483.59;;;-141.90;30.92
5298;BME280;14738;42.668;23.250;2023-04-22T06:59:54;48493.53;;;-141.90;31.42
5298;BME280;14738;42.668;23.250;2023-04-22T07:02:20;48461.78;;;-141.90;31.92
5298;BME280;14738;42.668;23.250;2023-04-22T07:04:46;48445.88;;;-141.90;34.10
5298;BME280;14738;42.668;23.250;2023-04-22T07:07:11;48441.91;;;-141.90;34.01
5298;BME280;14738;42.668;23.250;2023-04-22T07:09:37;48449.84;;;-141.90;34.10
5298;BME280;14738;42.668;23.250;2023-04-22T07:12:02;48426.03;;;-141.90;35.88
5298;BME280;14738;42.668;23.250;2023-04-22T07:14:28;48437.94;;;-141.90;35.81
5298;BME280;14738;42.668;23.250;2023-04-22T07:16:53;48422.06;;;-141.90;35.16
5298;BME280;14738;42.668;23.250;2023-04-22T07:19:19;48447.88;;;-141.90;35.00
5298;BME280;14738;42.668;23.250;2023-04-22T07:21:45;48441.91;;;-141.90;34.93
5298;BME280;14738;42.668;23.250;2023-04-22T07:24:10;48461.78;;;-141.90;33.70
5298;BME280;14738;42.668;23.250;2023-04-22T07:26:39;48426.03;;;-141.90;34.54
5298;BME280;14738;42.668;23.250;2023-04-22T07:29:04;48441.91;;;-141.90;34.21
5298;BME280;14738;42.668;23.250;2023-04-22T07:31:29;48418.09;;;-141.90;35.41
5298;BME280;14738;42.668;23.250;2023-04-22T07:33:55;48418.09;;;-141.90;35.90
5298;BME280;14738;42.668;23.250;2023-04-22T07:36:20;48422.06;;;-141.90;37.01
5298;BME280;14738;42.668;23.250;2023-04-22T07:38:46;48443.91;;;-141.90;35.74
5298;BME280;14738;42.668;23.250;2023-04-22T07:41:11;48443.91;;;-141.90;34.93
5298;BME280;14738;42.668;23.250;2023-04-22T07:43:36;48433.97;;;-141.90;34.23
5298;BME280;14738;42.668;23.250;2023-04-22T07:46:02;48449.84;;;-141.90;33.86
5298;BME280;14738;42.668;23.250;2023-04-22T07:48:27;48451.84;;;-141.90;34.03
5298;BME280;14738;42.668;23.250;2023-04-22T07:50:53;48457.81;;;-141.90;34.92
5298;BME280;14738;42.668;23.250;2023-04-22T07:53:18;48457.81;;;-141.90;34.69
5298;BME280;14738;42.668;23.250;2023-04-22T07:55:44;48445.88;;;-141.90;33.84
5298;BME280;14738;42.668;23.250;2023-04-22T07:58:10;48453.81;;;-141.90;34.70
5298;BME280;14738;42.668;23.250;2023-04-22T08:00:35;48441.91;;;-141.90;34.33
5298;BME280;14738;42.668;23.250;2023-04-22T08:03:02;48449.84;;;-141.90;34.13
5298;BME280;14738;42.668;23.250;2023-04-22T08:05:27;48469.72;;;-141.90;33.72
5298;BME280;14738;42.668;23.250;2023-04-22T08:07:53;48439.94;;;-141.90;32.80
5298;BME280;14738;42.668;23.250;2023-04-22T08:10:20;48453.81;;;-141.90;32.18
5298;BME280;14738;42.668;23.250;2023-04-22T08:12:46;48424.06;;;-141.90;33.59
5298;BME280;14738;42.668;23.250;2023-04-22T08:15:11;48420.09;;;-141.90;32.60
5298;BME280;14738;42.668;23.250;2023-04-22T08:17:37;48406.19;;;-141.90;34.33
5298;BME280;14738;42.668;23.250;2023-04-22T08:20:05;48428.03;;;-141.90;33.87
5298;BME280;14738;42.668;23.250;2023-04-22T08:22:31;48441.91;;;-141.90;33.74
5298;BME280;14738;42.668;23.250;2023-04-22T08:24:58;48414.13;;;-141.90;34.43
5298;BME280;14738;42.668;23.250;2023-04-22T08:27:24;48437.94;;;-141.90;33.86
5298;BME280;14738;42.668;23.250;2023-04-22T08:29:49;48455.81;;;-141.90;33.37
5298;BME280;14738;42.668;23.250;2023-04-22T08:32:15;48459.78;;;-141.90;33.70
5298;BME280;14738;42.668;23.250;2023-04-22T08:34:41;48449.84;;;-141.90;32.67
5298;BME280;14738;42.668;23.250;2023-04-22T08:37:06;48441.91;;;-141.90;32.63
5298;BME280;14738;42.668;23.250;2023-04-22T08:39:32;48473.69;;;-141.90;31.71
5298;BME280;14738;42.668;23.250;2023-04-22T08:41:57;48445.88;;;-141.90;34.23
5298;BME280;14738;42.668;23.250;2023-04-22T08:44:23;48447.88;;;-141.90;31.45
5298;BME280;14738;42.668;23.250;2023-04-22T08:46:50;48418.09;;;-141.90;32.19
5298;BME280;14738;42.668;23.250;2023-04-22T08:49:16;48430.00;;;-141.90;32.38
5298;BME280;14738;42.668;23.250;2023-04-22T08:51:43;48443.91;;;-141.90;32.74
5298;BME280;14738;42.668;23.250;2023-04-22T08:54:09;48445.88;;;-141.90;33.45
5298;BME280;14738;42.668;23.250;2023-04-22T08:56:36;48416.09;;;-141.90;32.95
5298;BME280;14738;42.668;23.250;2023-04-22T08:59:04;48447.88;;;-141.90;33.73
5298;BME280;14738;42.668;23.250;2023-04-22T09:01:30;48426.03;;;-141.90;31.32
5298;BME280;14738;42.668;23.250;2023-04-22T09:03:58;48437.94;;;-141.90;33.55
5298;BME280;14738;42.668;23.250;2023-04-22T09:06:24;48433.97;;;-141.90;32.15
5298;BME280;14738;42.668;23.250;2023-04-22T09:08:51;48447.88;;;-141.90;32.88
5298;BME280;14738;42.668;23.250;2023-04-22T09:11:17;48453.81;;;-141.90;33.61
5298;BME280;14738;42.668;23.250;2023-04-22T09:13:43;48485.59;;;-141.90;31.13
5298;BME280;14738;42.668;23.250;2023-04-22T09:16:08;48439.94;;;-141.90;30.96
5298;BME280;14738;42.668;23.250;2023-04-22T09:18:41;48451.84;;;-141.90;30.29
5298;BME280;14738;42.668;23.250;2023-04-22T09:21:07;48467.72;;;-141.90;29.28
5298;BME280;14738;42.668;23.250;2023-04-22T09:23:42;48465.75;;;-141.90;30.44
5298;BME280;14738;42.668;23.250;2023-04-22T09:26:08;48475.66;;;-141.90;30.29
5298;BME280;14738;42.668;23.250;2023-04-22T09:28:35;48441.91;;;-141.90;29.74
5298;BME280;14738;42.668;23.250;2023-04-22T09:31:02;48487.56;;;-141.90;31.50
5298;BME280;14738;42.668;23.250;2023-04-22T09:33:30;48469.72;;;-141.90;30.34
5298;BME280;14738;42.668;23.250;2023-04-22T09:35:55;48445.88;;;-141.90;30.69
5298;BME280;14738;42.668;23.250;2023-04-22T09:38:20;48457.81;;;-141.90;29.71
5298;BME280;14738;42.668;23.250;2023-04-22T09:40:46;48465.75;;;-141.90;29.86
5298;BME280;14738;42.668;23.250;2023-04-22T09:43:17;48426.03;;;-141.90;30.39
5298;BME280;14738;42.668;23.250;2023-04-22T09:45:43;48443.91;;;-141.90;30.98
5298;BME280;14738;42.668;23.250;2023-04-22T09:48:14;48453.81;;;-141.90;29.95
5298;BME280;14738;42.668;23.250;2023-04-22T09:50:46;48451.84;;;-141.90;28.84
5298;BME280;14738;42.668;23.250;2023-04-22T09:53:14;48418.09;;;-141.90;30.26
5298;BME280;14738;42.668;23.250;2023-04-22T09:55:42;48453.81;;;-141.90;30.01
5298;BME280;14738;42.668;23.250;2023-04-22T09:58:10;48418.09;;;-141.90;29.17
5298;BME280;14738;42.668;23.250;2023-04-22T10:00:40;48453.81;;;-141.90;28.81
5298;BME280;14738;42.668;23.250;2023-04-22T10:03:06;48428.03;;;-141.90;26.91
5298;BME280;14738;42.668;23.250;2023-04-22T10:05:36;48445.88;;;-141.90;27.09
5298;BME280;14738;42.668;23.250;2023-04-22T10:08:06;48463.75;;;-141.90;27.14
5298;BME280;14738;42.668;23.250;2023-04-22T10:10:32;48473.69;;;-141.90;27.37
5298;BME280;14738;42.668;23.250;2023-04-22T10:13:00;48457.81;;;-141.90;28.78
5298;BME280;14738;42.668;23.250;2023-04-22T10:15:26;48443.91;;;-141.90;29.79
5298;BME280;14738;42.668;23.250;2023-04-22T10:17:56;48449.84;;;-141.90;29.79
5298;BME280;14738;42.668;23.250;2023-04-22T10:20:24;48414.13;;;-141.90;30.03
5298;BME280;14738;42.668;23.250;2023-04-22T10:22:52;48433.97;;;-141.90;30.44
5298;BME280;14738;42.668;23.250;2023-04-22T10:25:23;48439.94;;;-141.90;30.89
5298;BME280;14738;42.668;23.250;2023-04-22T10:28:09;48441.91;;;-141.90;29.57
5298;BME280;14738;42.668;23.250;2023-04-22T10:30:37;48412.13;;;-141.90;29.96
5298;BME280;14738;42.668;23.250;2023-04-22T10:41:22;48420.09;;;-141.90;28.06
5298;BME280;14738;42.668;23.250;2023-04-22T10:43:57;48432.00;;;-141.90;28.87
5298;BME280;14738;42.668;23.250;2023-04-22T10:49:18;48449.84;;;-141.90;29.10
5298;BME280;14738;42.668;23.250;2023-04-22T10:51:51;48437.94;;;-141.90;27.72
5298;BME280;14738;42.668;23.250;2023-04-22T10:57:02;48451.84;;;-141.90;27.77
5298;BME280;14738;42.668;23.250;2023-04-22T10:59:28;48469.72;;;-141.90;28.66
5298;BME280;14738;42.668;23.250;2023-04-22T11:01:54;48445.88;;;-141.90;27.76
5298;BME280;14738;42.668;23.250;2023-04-22T11:04:25;48430.00;;;-141.90;27.71
5298;BME280;14738;42.668;23.250;2023-04-22T11:09:43;48432.00;;;-141.90;28.42
5298;BME280;14738;42.668;23.250;2023-04-22T11:15:15;48426.03;;;-141.90;28.71
5298;BME280;14738;42.668;23.250;2023-04-22T11:17:44;48414.13;;;-141.90;28.71
5298;BME280;14738;42.668;23.250;2023-04-22T11:20:11;48432.00;;;-141.90;29.12
5298;BME280;14738;42.668;23.250;2023-04-22T11:22:47;48426.03;;;-141.90;28.27
5298;BME280;14738;42.668;23.250;2023-04-22T11:25:13;48453.81;;;-141.90;28.13
5298;BME280;14738;42.668;23.250;2023-04-22T11:27:41;48418.09;;;-141.90;28.53
5298;BME280;14738;42.668;23.250;2023-04-22T11:30:15;48410.16;;;-141.90;28.06
5298;BME280;14738;42.668;23.250;2023-04-22T11:35:10;48426.03;;;-141.90;29.71
5298;BME280;14738;42.668;23.250;2023-04-22T11:40:09;48410.16;;;-141.90;32.00
5298;BME280;14738;42.668;23.250;2023-04-22T11:42:36;48422.06;;;-141.90;32.24
5298;BME280;14738;42.668;23.250;2023-04-22T11:45:02;48426.03;;;-141.90;32.24
5298;BME280;14738;42.668;23.250;2023-04-22T11:47:31;48410.16;;;-141.90;32.27
5298;BME280;14738;42.668;23.250;2023-04-22T11:49:58;48418.09;;;-141.90;32.88
5298;BME280;14738;42.668;23.250;2023-04-22T11:52:24;48422.06;;;-141.90;31.99
5298;BME280;14738;42.668;23.250;2023-04-22T11:54:50;48398.25;;;-141.90;33.28
5298;BME280;14738;42.668;23.250;2023-04-22T11:57:16;48402.22;;;-141.90;33.53
5298;BME280;14738;42.668;23.250;2023-04-22T11:59:42;48374.41;;;-141.90;33.18
5298;BME280;14738;42.668;23.250;2023-04-22T12:02:08;48426.03;;;-141.90;33.03
5298;BME280;14738;42.668;23.250;2023-04-22T12:04:38;48430.00;;;-141.90;33.90
5298;BME280;14738;42.668;23.250;2023-04-22T12:07:04;48390.31;;;-141.90;33.49
5298;BME280;14738;42.668;23.250;2023-04-22T12:09:29;48414.13;;;-141.90;33.96
5298;BME280;14738;42.668;23.250;2023-04-22T12:11:55;48410.16;;;-141.90;33.91
5298;BME280;14738;42.668;23.250;2023-04-22T12:14:21;48410.16;;;-141.90;34.69
5298;BME280;14738;42.668;23.250;2023-04-22T12:16:54;48410.16;;;-141.90;35.11
5298;BME280;14738;42.668;23.250;2023-04-22T12:19:24;48386.34;;;-141.90;35.22
5298;BME280;14738;42.668;23.250;2023-04-22T12:21:54;48406.19;;;-141.90;35.09
5298;BME280;14738;42.668;23.250;2023-04-22T12:24:26;48420.09;;;-141.90;36.56
5298;BME280;14738;42.668;23.250;2023-04-22T12:26:52;48386.34;;;-141.90;35.56
5298;BME280;14738;42.668;23.250;2023-04-22T12:29:26;48398.25;;;-141.90;35.44
5298;BME280;14738;42.668;23.250;2023-04-22T12:31:51;48398.25;;;-141.90;36.82
5298;BME280;14738;42.668;23.250;2023-04-22T12:34:16;48426.03;;;-141.90;37.43
5298;BME280;14738;42.668;23.250;2023-04-22T12:36:42;48404.19;;;-141.90;36.53
5298;BME280;14738;42.668;23.250;2023-04-22T12:39:07;48406.19;;;-141.90;35.93
5298;BME280;14738;42.668;23.250;2023-04-22T12:41:34;48422.06;;;-141.90;35.46
5298;BME280;14738;42.668;23.250;2023-04-22T12:44:00;48437.94;;;-141.90;33.55
5298;BME280;14738;42.668;23.250;2023-04-22T12:46:25;48402.22;;;-141.90;34.48
5298;BME280;14738;42.668;23.250;2023-04-22T12:48:51;48424.06;;;-141.90;34.35
5298;BME280;14738;42.668;23.250;2023-04-22T12:51:16;48420.09;;;-141.90;34.48
5298;BME280;14738;42.668;23.250;2023-04-22T12:53:42;48396.25;;;-141.90;35.88
5298;BME280;14738;42.668;23.250;2023-04-22T12:56:07;48410.16;;;-141.90;35.18